Skip to main content

NOAA/GLERL Met Station at Chicago, IL

Previous 3 Hours (2 minute increments)
See also Previous 5 Days (top of hour)
Jump down to Data
Switch to [English][Metric]
Zoom: Click and drag, Pan: shift-click and drag, Unzoom: double-click, Unzoom All




See also 1-day windrose plot


NOAA/GLERL Met Station at Chicago, IL

Previous 3 Hours (2 minute increments)
See also Previous 5 Days (top of hour only)
Jump up to Graphs
Switch to [English][Metric]
                  Wind  Wind  Wind   Air   Dew   Rel
                   Spd   Gst   Dir  Temp    Pt   Hum
YYYY-MM-DD   CST   kts   kts   deg     F     F     %
2017-12-16 18:20   2.7   3.7    76  40.5  36.8  86.6
2017-12-16 18:18   1.9   2.3    73  40.5  36.8  86.5
2017-12-16 18:16   2.7   3.9    84  40.5  36.9  86.9
2017-12-16 18:14   3.1   4.1    83  40.3  36.9  87.6
2017-12-16 18:12   2.7   4.1    86  40.3  37.1  88.3
2017-12-16 18:10   2.3   3.5    76  40.1  37.0  88.6
2017-12-16 18:08   1.2   2.5    71  40.1  37.0  88.6
2017-12-16 18:06   1.2   2.7    76  40.3  37.2  88.6
2017-12-16 18:04   1.9   2.3    72  40.3  37.2  88.5
2017-12-16 18:02   1.9   2.3    69  40.3  37.1  88.4
2017-12-16 18:00   2.1   2.7    63  40.3  37.1  88.2
2017-12-16 17:58   2.3   2.7    56  40.3  37.1  88.1
2017-12-16 17:56   2.5   2.7    53  40.3  36.9  87.7
2017-12-16 17:54   2.3   2.9    50  40.3  36.8  87.3
2017-12-16 17:52   1.9   2.7    42  40.3  36.7  86.8
2017-12-16 17:50   1.7   2.5    26  40.3  36.6  86.5
2017-12-16 17:48   2.1   3.3     7  40.1  36.4  86.3
2017-12-16 17:46   1.0   2.7   327  40.1  36.3  86.1
2017-12-16 17:44   2.3   3.9   309  40.1  36.1  85.4
2017-12-16 17:42   1.9   3.3   344  40.3  35.9  84.1
2017-12-16 17:40   0.4   1.7    45  40.6  36.0  83.2
2017-12-16 17:38   2.3   4.5    90  40.8  36.0  82.6
2017-12-16 17:36   5.4   5.8    95  41.0  35.9  81.9
2017-12-16 17:34   6.4   7.0    95  41.0  35.6  80.9
2017-12-16 17:32   7.4   8.0    99  41.2  35.5  80.0
2017-12-16 17:30   7.8   8.4   100  41.2  35.2  79.1
2017-12-16 17:28   8.4   8.6   101  41.2  35.0  78.5
2017-12-16 17:26   8.6   8.7   101  41.2  34.9  78.2
2017-12-16 17:24   8.4   8.6   101  41.2  34.8  77.7
2017-12-16 17:22   8.4   8.7   101  41.4  34.6  76.5
2017-12-16 17:20   8.7   9.1   102  41.4  34.1  75.2
2017-12-16 17:18   8.9   9.5   104  41.5  33.8  73.8
2017-12-16 17:16   9.5   9.9   103  41.7  33.5  72.3
2017-12-16 17:14   9.5   9.9   102  41.9  33.0  70.4
2017-12-16 17:12   9.5   9.7   103  41.9  32.5  68.9
2017-12-16 17:10   8.9   9.5   102  41.7  32.8  70.3
2017-12-16 17:08   8.6   9.1   102  41.9  32.8  69.9
2017-12-16 17:06   8.7   8.9   101  42.1  31.9  66.9
2017-12-16 17:04   9.3   9.7   100  41.9  32.3  68.5
2017-12-16 17:02   8.0   8.7   100  41.7  33.7  72.9
2017-12-16 17:00   8.0   8.4   100  41.7  33.4  72.1
2017-12-16 16:58   8.2   8.6    99  41.7  33.5  72.4
2017-12-16 16:56   8.4   8.6    99  41.7  33.7  72.8
2017-12-16 16:54   8.4   8.6   100  41.7  33.6  72.6
2017-12-16 16:52   8.6   8.7   100  41.7  33.4  72.1
2017-12-16 16:50   8.6   8.6   100  41.9  33.2  71.0
2017-12-16 16:48   8.6   8.6    95  41.9  33.3  71.3
2017-12-16 16:46   8.6   8.7    94  41.7  33.5  72.3
2017-12-16 16:44   8.6   8.7    97  41.5  34.1  74.5
2017-12-16 16:42   8.2   8.4    97  41.5  34.2  74.8
2017-12-16 16:40   8.2   8.4    97  41.5  34.0  74.2
2017-12-16 16:38   8.0   8.4    96  41.5  34.3  75.2
2017-12-16 16:36   8.4   8.6    96  41.5  34.4  75.4
2017-12-16 16:34   8.4   8.6    93  41.5  34.5  75.7
2017-12-16 16:32   8.4   8.4    91  41.5  34.3  75.3
2017-12-16 16:30   8.2   8.4    91  41.4  34.4  76.0
2017-12-16 16:28   8.0   8.2    92  41.5  34.4  75.6
2017-12-16 16:26   8.2   8.4    93  41.5  34.2  74.8
2017-12-16 16:24   7.8   8.2    91  41.5  33.8  73.8
2017-12-16 16:22   7.4   7.6    87  41.7  33.7  72.8
2017-12-16 16:20   6.8   7.2    79  41.9  33.0  70.5
2017-12-16 16:18   6.8   7.2    72  42.1  32.0  67.1
2017-12-16 16:16   6.8   7.4    69  42.4  31.1  63.9
2017-12-16 16:14   6.0   6.2    68  42.6  30.7  62.4
2017-12-16 16:12   5.4   5.8    73  42.8  30.3  60.9
2017-12-16 16:10   5.1   5.4    77  42.8  29.6  59.2
2017-12-16 16:08   4.7   5.1    81  43.0  29.2  57.8
2017-12-16 16:06   4.1   4.7    77  43.2  28.9  56.7
2017-12-16 16:04   3.7   3.9    74  43.3  28.5  55.4
2017-12-16 16:02   3.7   3.9    71  43.5  28.3  54.6
2017-12-16 16:00   3.3   3.9    70  43.7  28.3  54.3
2017-12-16 15:58   3.5   3.9    71  43.7  27.9  53.4
2017-12-16 15:56   3.9   4.3    69  43.7  28.0  53.7
2017-12-16 15:54   4.3   4.5    75  43.7  27.4  52.2
2017-12-16 15:52   4.3   4.7    87  44.1  27.3  51.3
2017-12-16 15:50   4.3   5.1    93  44.2  26.9  50.1
2017-12-16 15:48   4.9   5.4   103  44.2  26.6  49.5
2017-12-16 15:46   5.2   5.6   107  44.6  26.7  49.0
2017-12-16 15:44   5.2   5.4   108  44.6  26.5  48.6
2017-12-16 15:42   5.1   5.1   101  44.2  26.5  49.4
2017-12-16 15:40   4.9   5.1    95  44.1  27.1  51.0
2017-12-16 15:38   4.3   4.7    92  43.3  27.9  54.2
2017-12-16 15:36   3.9   4.1    86  42.4  31.1  63.8
2017-12-16 15:34   3.3   3.7    84  42.4  32.1  66.6
2017-12-16 15:32   3.1   3.5    86  42.4  31.9  66.0
2017-12-16 15:30   3.3   3.7    71  42.3  32.0  66.8
2017-12-16 15:28   3.9   4.9    69  42.1  31.8  66.6
2017-12-16 15:26   4.1   4.7    73  42.1  32.1  67.4
2017-12-16 15:24   4.3   4.5    84  41.9  32.7  69.4
2017-12-16 15:22   5.1   6.0    69  41.7  32.9  70.5
2017-12-16 15:20   5.2   5.6    59  41.5  33.2  72.0